Погода Свенцяна неделю

Великопольское воеводство, Польша

17 - 23 июля
  • 17июля
    Сегодня
    +15°
    +27°
    Облачно с прояснениями
    ВремяПогодаТемператураВлажностьДавлениеВетер, м/сВероятность осадков
    02:00Ясно и безоблачно+19°C90 %753 мм2.7 м/с2 %
    05:00Ясно и безоблачно+19°C85 %755 мм2.7 м/с2 %
    08:00Ясно и безоблачно+21°C73 %756 мм4.0 м/с2 %
    11:00Ясно и безоблачно+24°C53 %756 мм3.6 м/с2 %
    14:00Облачно с прояснениями+26°C45 %756 мм3.8 м/с2 %
    17:00Небольшая облачность+26°C44 %756 мм4.8 м/с2 %
    20:00Облачно с прояснениями+23°C60 %757 мм1.8 м/с2 %
    23:00Ясно и безоблачно+21°C73 %757 мм1.5 м/с2 %
  • 18июля
    Четверг
    +16°
    +26°
    Ясно и безоблачно
    ВремяПогодаТемператураВлажностьДавлениеВетер, м/сВероятность осадков
    02:00Ясно и безоблачно+17°C82 %758 мм1.8 м/с2 %
    05:00Ясно и безоблачно+16°C87 %758 мм1.9 м/с2 %
    08:00Ясно и безоблачно+19°C73 %759 мм2.1 м/с2 %
    11:00Ясно и безоблачно+23°C58 %759 мм3.4 м/с1 %
    14:00Ясно и безоблачно+25°C48 %759 мм4.3 м/с3 %
    17:00Небольшая облачность+26°C44 %759 мм3.9 м/с2 %
    20:00Небольшая облачность+23°C56 %759 мм2.9 м/с2 %
    23:00Облачно с прояснениями+18°C79 %759 мм2.1 м/с2 %
  • 19июля
    Пятница
    +15°
    +27°
    Небольшая облачность
    ВремяПогодаТемператураВлажностьДавлениеВетер, м/сВероятность осадков
    02:00Облачно с прояснениями+17°C85 %760 мм2.0 м/с2 %
    05:00Ясно и безоблачно+16°C93 %759 мм1.6 м/с2 %
    08:00Облачно с прояснениями+20°C76 %759 мм0.9 м/с2 %
    11:00Практически безоблачно+24°C54 %759 мм0.7 м/с2 %
    14:00Небольшая облачность+26°C45 %758 мм2.0 м/с2 %
    17:00Облачно с прояснениями+26°C43 %757 мм2.4 м/с2 %
    20:00Ясно и безоблачно+24°C67 %756 мм1.5 м/с2 %
    23:00Ясно и безоблачно+19°C76 %756 мм1.9 м/с2 %
  • 20июля
    Суббота
    +15°
    +28°
    Практически безоблачно
    ВремяПогодаТемператураВлажностьДавлениеВетер, м/сВероятность осадков
    02:00Ясно и безоблачно+17°C85 %755 мм2.1 м/с2 %
    05:00Ясно и безоблачно+16°C94 %755 мм1.8 м/с2 %
    08:00Ясно и безоблачно+20°C72 %754 мм0.4 м/с2 %
    11:00Ясно и безоблачно+25°C49 %754 мм0.7 м/с2 %
    14:00Практически безоблачно+27°C41 %753 мм1.9 м/с2 %
    17:00Практически безоблачно+28°C38 %751 мм1.5 м/с2 %
    20:00Ясно и безоблачно+25°C54 %751 мм2.3 м/с2 %
    23:00Небольшая облачность+20°C62 %751 мм2.3 м/с2 %
  • 21июля
    Воскресенье
    +18°
    +31°
    Ясно и безоблачно
    ВремяПогодаТемператураВлажностьДавлениеВетер, м/сВероятность осадков
    02:00Практически безоблачно+18°C63 %750 мм1.9 м/с2 %
    05:00Ясно и безоблачно+16°C76 %750 мм1.7 м/с2 %
    08:00Ясно и безоблачно+21°C67 %749 мм1.3 м/с2 %
    11:00Ясно и безоблачно+26°C41 %749 мм1.7 м/с2 %
    14:00Ясно и безоблачно+29°C35 %748 мм2.0 м/с2 %
    17:00Облачно с прояснениями+30°C32 %747 мм2.6 м/с8 %
    20:00Облачно с прояснениями+26°C51 %747 мм1.8 м/с4 %
    23:00Облачно с прояснениями+22°C51 %747 мм3.2 м/с8 %
Мы используем cookies
Соглашаюсь